sensor_id;sensor_type;location;lat;lon;timestamp;temperature;humidity
37754;DHT22;23596;52.520;13.464;2022-09-20T00:01:25;10.00;99.90
37754;DHT22;23596;52.520;13.464;2022-09-20T00:03:57;9.90;99.90
37754;DHT22;23596;52.520;13.464;2022-09-20T00:06:25;9.90;99.90
37754;DHT22;23596;52.520;13.464;2022-09-20T00:08:51;9.90;99.90
37754;DHT22;23596;52.520;13.464;2022-09-20T00:11:25;9.90;99.90
37754;DHT22;23596;52.520;13.464;2022-09-20T00:13:52;9.90;99.90
37754;DHT22;23596;52.520;13.464;2022-09-20T00:16:25;9.90;99.90
37754;DHT22;23596;52.520;13.464;2022-09-20T00:18:52;9.90;99.90
37754;DHT22;23596;52.520;13.464;2022-09-20T00:21:20;9.90;99.90
37754;DHT22;23596;52.520;13.464;2022-09-20T00:23:47;9.90;99.90
37754;DHT22;23596;52.520;13.464;2022-09-20T00:26:13;9.80;99.90
37754;DHT22;23596;52.520;13.464;2022-09-20T00:28:39;9.80;99.90
37754;DHT22;23596;52.520;13.464;2022-09-20T00:31:04;9.80;99.90
37754;DHT22;23596;52.520;13.464;2022-09-20T00:33:30;9.80;99.90
37754;DHT22;23596;52.520;13.464;2022-09-20T00:36:15;9.80;99.90
37754;DHT22;23596;52.520;13.464;2022-09-20T00:38:41;9.80;99.90
37754;DHT22;23596;52.520;13.464;2022-09-20T00:41:07;9.70;99.90
37754;DHT22;23596;52.520;13.464;2022-09-20T00:43:39;9.70;99.90
37754;DHT22;23596;52.520;13.464;2022-09-20T00:46:12;9.70;99.90
37754;DHT22;23596;52.520;13.464;2022-09-20T00:48:42;9.70;99.90
37754;DHT22;23596;52.520;13.464;2022-09-20T00:51:10;9.70;99.90
37754;DHT22;23596;52.520;13.464;2022-09-20T00:53:39;9.70;99.90
37754;DHT22;23596;52.520;13.464;2022-09-20T00:56:16;9.70;99.90
37754;DHT22;23596;52.520;13.464;2022-09-20T00:58:49;9.70;99.90
37754;DHT22;23596;52.520;13.464;2022-09-20T01:01:16;9.70;99.90
37754;DHT22;23596;52.520;13.464;2022-09-20T01:03:42;9.70;99.90
37754;DHT22;23596;52.520;13.464;2022-09-20T01:06:11;9.60;99.90
37754;DHT22;23596;52.520;13.464;2022-09-20T01:08:39;9.60;99.90
37754;DHT22;23596;52.520;13.464;2022-09-20T01:11:06;9.70;99.90
37754;DHT22;23596;52.520;13.464;2022-09-20T01:13:31;9.60;99.90
37754;DHT22;23596;52.520;13.464;2022-09-20T01:15:57;9.60;99.90
37754;DHT22;23596;52.520;13.464;2022-09-20T01:18:26;9.60;99.90
37754;DHT22;23596;52.520;13.464;2022-09-20T01:20:52;9.60;99.90
37754;DHT22;23596;52.520;13.464;2022-09-20T01:23:41;9.60;99.90
37754;DHT22;23596;52.520;13.464;2022-09-20T01:26:30;9.60;99.90
37754;DHT22;23596;52.520;13.464;2022-09-20T01:31:58;9.60;99.90
37754;DHT22;23596;52.520;13.464;2022-09-20T01:34:34;9.60;99.90
37754;DHT22;23596;52.520;13.464;2022-09-20T01:37:23;9.50;99.90
37754;DHT22;23596;52.520;13.464;2022-09-20T01:42:45;9.50;99.90
37754;DHT22;23596;52.520;13.464;2022-09-20T01:45:23;9.50;99.90
37754;DHT22;23596;52.520;13.464;2022-09-20T01:48:01;9.50;99.90
37754;DHT22;23596;52.520;13.464;2022-09-20T02:04:32;9.50;99.90
37754;DHT22;23596;52.520;13.464;2022-09-20T02:10:11;9.50;99.90
37754;DHT22;23596;52.520;13.464;2022-09-20T02:21:46;9.50;99.90
37754;DHT22;23596;52.520;13.464;2022-09-20T02:24:24;9.50;99.90
37754;DHT22;23596;52.520;13.464;2022-09-20T02:54:05;9.60;99.90
37754;DHT22;23596;52.520;13.464;2022-09-20T02:56:57;9.60;99.90
37754;DHT22;23596;52.520;13.464;2022-09-20T03:02:25;9.60;99.90
37754;DHT22;23596;52.520;13.464;2022-09-20T03:05:01;9.70;99.90
37754;DHT22;23596;52.520;13.464;2022-09-20T03:07:45;9.70;99.90
37754;DHT22;23596;52.520;13.464;2022-09-20T03:10:25;9.60;99.90
37754;DHT22;23596;52.520;13.464;2022-09-20T03:15:51;9.60;99.90
37754;DHT22;23596;52.520;13.464;2022-09-20T03:21:43;9.60;99.90
37754;DHT22;23596;52.520;13.464;2022-09-20T03:24:56;9.60;99.90
37754;DHT22;23596;52.520;13.464;2022-09-20T03:27:48;9.50;99.90
37754;DHT22;23596;52.520;13.464;2022-09-20T03:31:02;9.50;99.90
37754;DHT22;23596;52.520;13.464;2022-09-20T03:58:29;9.70;99.90
37754;DHT22;23596;52.520;13.464;2022-09-20T04:04:29;9.80;99.90
37754;DHT22;23596;52.520;13.464;2022-09-20T04:15:24;9.90;99.90
37754;DHT22;23596;52.520;13.464;2022-09-20T04:18:00;9.90;99.90
37754;DHT22;23596;52.520;13.464;2022-09-20T04:26:21;9.90;99.90
37754;DHT22;23596;52.520;13.464;2022-09-20T04:28:56;9.90;99.90
37754;DHT22;23596;52.520;13.464;2022-09-20T04:31:56;9.90;99.90
37754;DHT22;23596;52.520;13.464;2022-09-20T04:34:31;9.90;99.90
37754;DHT22;23596;52.520;13.464;2022-09-20T04:37:36;9.90;99.90
37754;DHT22;23596;52.520;13.464;2022-09-20T04:40:31;9.90;99.90
37754;DHT22;23596;52.520;13.464;2022-09-20T04:51:35;9.90;99.90
37754;DHT22;23596;52.520;13.464;2022-09-20T04:54:41;9.90;99.90
37754;DHT22;23596;52.520;13.464;2022-09-20T04:57:37;9.90;99.90
37754;DHT22;23596;52.520;13.464;2022-09-20T05:00:14;9.90;99.90
37754;DHT22;23596;52.520;13.464;2022-09-20T05:03:02;9.80;99.90
37754;DHT22;23596;52.520;13.464;2022-09-20T05:06:08;9.80;99.90
37754;DHT22;23596;52.520;13.464;2022-09-20T05:11:29;9.80;99.90
37754;DHT22;23596;52.520;13.464;2022-09-20T05:14:09;9.80;99.90
37754;DHT22;23596;52.520;13.464;2022-09-20T05:20:02;9.90;99.90
37754;DHT22;23596;52.520;13.464;2022-09-20T05:37:48;9.90;99.90
37754;DHT22;23596;52.520;13.464;2022-09-20T05:40:32;10.00;99.90
37754;DHT22;23596;52.520;13.464;2022-09-20T05:43:12;10.00;99.90
37754;DHT22;23596;52.520;13.464;2022-09-20T05:51:31;10.10;99.90
37754;DHT22;23596;52.520;13.464;2022-09-20T05:54:17;10.10;99.90
37754;DHT22;23596;52.520;13.464;2022-09-20T05:56:57;10.10;99.90
37754;DHT22;23596;52.520;13.464;2022-09-20T06:02:53;10.20;99.90
37754;DHT22;23596;52.520;13.464;2022-09-20T06:19:47;10.60;99.90
37754;DHT22;23596;52.520;13.464;2022-09-20T06:22:32;10.50;99.90
37754;DHT22;23596;52.520;13.464;2022-09-20T06:27:43;10.60;99.90
37754;DHT22;23596;52.520;13.464;2022-09-20T06:30:20;10.60;99.90
37754;DHT22;23596;52.520;13.464;2022-09-20T06:32:57;10.60;99.90
37754;DHT22;23596;52.520;13.464;2022-09-20T06:35:27;10.70;99.90
37754;DHT22;23596;52.520;13.464;2022-09-20T06:38:03;10.70;99.90
37754;DHT22;23596;52.520;13.464;2022-09-20T06:40:50;10.70;99.90
37754;DHT22;23596;52.520;13.464;2022-09-20T06:43:44;10.80;99.90
37754;DHT22;23596;52.520;13.464;2022-09-20T06:46:11;10.80;99.90
37754;DHT22;23596;52.520;13.464;2022-09-20T06:48:37;10.80;99.90
37754;DHT22;23596;52.520;13.464;2022-09-20T06:51:05;10.80;99.90
37754;DHT22;23596;52.520;13.464;2022-09-20T06:53:32;10.80;99.90
37754;DHT22;23596;52.520;13.464;2022-09-20T06:55:59;10.80;99.90
37754;DHT22;23596;52.520;13.464;2022-09-20T06:58:26;10.80;99.90
37754;DHT22;23596;52.520;13.464;2022-09-20T07:00:52;10.80;99.90
37754;DHT22;23596;52.520;13.464;2022-09-20T07:03:18;10.80;99.90
37754;DHT22;23596;52.520;13.464;2022-09-20T07:05:44;11.00;99.90
37754;DHT22;23596;52.520;13.464;2022-09-20T07:08:10;10.80;99.90
37754;DHT22;23596;52.520;13.464;2022-09-20T07:10:37;10.80;99.90
37754;DHT22;23596;52.520;13.464;2022-09-20T07:13:03;10.80;99.90
37754;DHT22;23596;52.520;13.464;2022-09-20T07:15:31;10.80;99.90
37754;DHT22;23596;52.520;13.464;2022-09-20T07:17:57;10.80;99.90
37754;DHT22;23596;52.520;13.464;2022-09-20T07:20:23;10.80;99.90
37754;DHT22;23596;52.520;13.464;2022-09-20T07:22:49;10.80;99.90
37754;DHT22;23596;52.520;13.464;2022-09-20T07:25:15;10.80;99.90
37754;DHT22;23596;52.520;13.464;2022-09-20T07:27:42;10.80;99.90
37754;DHT22;23596;52.520;13.464;2022-09-20T07:30:09;10.80;99.90
37754;DHT22;23596;52.520;13.464;2022-09-20T07:32:35;10.80;99.90
37754;DHT22;23596;52.520;13.464;2022-09-20T07:35:00;10.80;99.90
37754;DHT22;23596;52.520;13.464;2022-09-20T07:37:26;10.80;99.90
37754;DHT22;23596;52.520;13.464;2022-09-20T07:39:51;10.80;99.90
37754;DHT22;23596;52.520;13.464;2022-09-20T07:42:17;10.80;99.90
37754;DHT22;23596;52.520;13.464;2022-09-20T07:44:42;10.80;99.90
37754;DHT22;23596;52.520;13.464;2022-09-20T07:47:08;10.80;99.90
37754;DHT22;23596;52.520;13.464;2022-09-20T07:49:35;10.80;99.90
37754;DHT22;23596;52.520;13.464;2022-09-20T07:52:02;10.80;99.90
37754;DHT22;23596;52.520;13.464;2022-09-20T07:54:27;10.90;99.90
37754;DHT22;23596;52.520;13.464;2022-09-20T07:56:53;10.90;99.90
37754;DHT22;23596;52.520;13.464;2022-09-20T07:59:19;11.00;99.90
37754;DHT22;23596;52.520;13.464;2022-09-20T08:01:45;11.00;99.90
37754;DHT22;23596;52.520;13.464;2022-09-20T08:04:12;11.00;99.90
37754;DHT22;23596;52.520;13.464;2022-09-20T08:06:39;11.00;99.90
37754;DHT22;23596;52.520;13.464;2022-09-20T08:09:06;11.10;99.90
37754;DHT22;23596;52.520;13.464;2022-09-20T08:11:32;11.30;99.90
37754;DHT22;23596;52.520;13.464;2022-09-20T08:13:59;11.20;99.90
37754;DHT22;23596;52.520;13.464;2022-09-20T08:16:25;11.20;99.90
37754;DHT22;23596;52.520;13.464;2022-09-20T08:19:00;11.30;99.90
37754;DHT22;23596;52.520;13.464;2022-09-20T08:21:33;11.30;99.90
37754;DHT22;23596;52.520;13.464;2022-09-20T08:23:59;11.30;99.90
37754;DHT22;23596;52.520;13.464;2022-09-20T08:26:26;11.40;99.90
37754;DHT22;23596;52.520;13.464;2022-09-20T08:28:54;11.40;99.90
37754;DHT22;23596;52.520;13.464;2022-09-20T08:31:22;11.50;99.90
37754;DHT22;23596;52.520;13.464;2022-09-20T08:33:49;11.60;99.90
37754;DHT22;23596;52.520;13.464;2022-09-20T08:36:21;11.60;99.90
37754;DHT22;23596;52.520;13.464;2022-09-20T08:38:48;11.70;99.90
37754;DHT22;23596;52.520;13.464;2022-09-20T08:43:51;11.70;99.90
37754;DHT22;23596;52.520;13.464;2022-09-20T08:46:21;11.80;99.90
37754;DHT22;23596;52.520;13.464;2022-09-20T08:48:47;11.90;99.90
37754;DHT22;23596;52.520;13.464;2022-09-20T08:51:14;11.90;99.90
37754;DHT22;23596;52.520;13.464;2022-09-20T08:53:53;11.90;99.90
37754;DHT22;23596;52.520;13.464;2022-09-20T08:56:19;12.00;99.90
37754;DHT22;23596;52.520;13.464;2022-09-20T08:58:46;12.10;99.90
37754;DHT22;23596;52.520;13.464;2022-09-20T09:01:21;12.10;99.90
37754;DHT22;23596;52.520;13.464;2022-09-20T09:03:49;12.20;99.90
37754;DHT22;23596;52.520;13.464;2022-09-20T09:06:17;12.30;99.90
37754;DHT22;23596;52.520;13.464;2022-09-20T09:08:43;12.40;99.90
37754;DHT22;23596;52.520;13.464;2022-09-20T09:11:15;12.50;99.90
37754;DHT22;23596;52.520;13.464;2022-09-20T09:14:06;12.50;99.90
37754;DHT22;23596;52.520;13.464;2022-09-20T09:16:55;12.60;99.90
37754;DHT22;23596;52.520;13.464;2022-09-20T09:22:04;12.70;99.90
37754;DHT22;23596;52.520;13.464;2022-09-20T09:24:30;12.70;99.90
37754;DHT22;23596;52.520;13.464;2022-09-20T09:27:16;12.90;99.90
37754;DHT22;23596;52.520;13.464;2022-09-20T09:29:53;12.90;99.90
37754;DHT22;23596;52.520;13.464;2022-09-20T09:32:26;12.90;99.90
37754;DHT22;23596;52.520;13.464;2022-09-20T09:37:53;13.00;99.90
37754;DHT22;23596;52.520;13.464;2022-09-20T09:40:19;13.10;99.90
37754;DHT22;23596;52.520;13.464;2022-09-20T09:42:50;13.10;99.90
37754;DHT22;23596;52.520;13.464;2022-09-20T09:45:34;13.20;99.90
37754;DHT22;23596;52.520;13.464;2022-09-20T09:48:26;13.30;99.90
37754;DHT22;23596;52.520;13.464;2022-09-20T09:51:12;13.30;99.90
37754;DHT22;23596;52.520;13.464;2022-09-20T09:53:40;13.40;99.90
37754;DHT22;23596;52.520;13.464;2022-09-20T09:58:49;13.50;99.90
37754;DHT22;23596;52.520;13.464;2022-09-20T10:01:41;13.60;99.90
37754;DHT22;23596;52.520;13.464;2022-09-20T10:07:08;13.60;99.90
37754;DHT22;23596;52.520;13.464;2022-09-20T10:10:06;13.70;99.90
37754;DHT22;23596;52.520;13.464;2022-09-20T10:12:45;13.80;99.90
37754;DHT22;23596;52.520;13.464;2022-09-20T10:18:03;13.90;99.90
37754;DHT22;23596;52.520;13.464;2022-09-20T10:24:23;14.20;99.90
37754;DHT22;23596;52.520;13.464;2022-09-20T10:26:37;14.30;99.90
37754;DHT22;23596;52.520;13.464;2022-09-20T10:38:03;14.40;99.90
37754;DHT22;23596;52.520;13.464;2022-09-20T10:40:41;14.30;99.90
37754;DHT22;23596;52.520;13.464;2022-09-20T10:43:45;14.40;99.90
37754;DHT22;23596;52.520;13.464;2022-09-20T10:49:03;14.30;99.90
37754;DHT22;23596;52.520;13.464;2022-09-20T10:51:35;14.20;99.90
37754;DHT22;23596;52.520;13.464;2022-09-20T10:54:38;14.00;99.90
37754;DHT22;23596;52.520;13.464;2022-09-20T10:57:29;13.70;99.90
37754;DHT22;23596;52.520;13.464;2022-09-20T11:00:17;13.50;99.90
37754;DHT22;23596;52.520;13.464;2022-09-20T11:03:14;13.20;99.90
37754;DHT22;23596;52.520;13.464;2022-09-20T11:06:15;13.00;99.90
37754;DHT22;23596;52.520;13.464;2022-09-20T11:08:43;12.80;99.90
37754;DHT22;23596;52.520;13.464;2022-09-20T11:16:54;12.30;99.90
37754;DHT22;23596;52.520;13.464;2022-09-20T11:19:36;12.00;99.90
37754;DHT22;23596;52.520;13.464;2022-09-20T11:22:15;11.80;99.90
37754;DHT22;23596;52.520;13.464;2022-09-20T11:27:43;11.40;99.90
37754;DHT22;23596;52.520;13.464;2022-09-20T11:30:23;11.40;99.90
37754;DHT22;23596;52.520;13.464;2022-09-20T11:35:45;11.20;99.90
37754;DHT22;23596;52.520;13.464;2022-09-20T11:38:34;11.20;99.90
37754;DHT22;23596;52.520;13.464;2022-09-20T11:41:12;11.20;99.90
37754;DHT22;23596;52.520;13.464;2022-09-20T11:43:41;11.10;99.90
37754;DHT22;23596;52.520;13.464;2022-09-20T11:46:12;11.10;99.90
37754;DHT22;23596;52.520;13.464;2022-09-20T11:48:53;11.10;99.90
37754;DHT22;23596;52.520;13.464;2022-09-20T11:51:38;11.00;99.90
37754;DHT22;23596;52.520;13.464;2022-09-20T11:54:26;11.00;99.90
37754;DHT22;23596;52.520;13.464;2022-09-20T11:56:57;10.90;99.90
37754;DHT22;23596;52.520;13.464;2022-09-20T11:59:39;10.90;99.90
37754;DHT22;23596;52.520;13.464;2022-09-20T12:02:50;11.00;99.90
37754;DHT22;23596;52.520;13.464;2022-09-20T12:05:30;11.10;99.90
37754;DHT22;23596;52.520;13.464;2022-09-20T12:07:59;11.10;99.90
37754;DHT22;23596;52.520;13.464;2022-09-20T12:10:26;11.20;99.90
37754;DHT22;23596;52.520;13.464;2022-09-20T12:12:57;11.40;99.90
37754;DHT22;23596;52.520;13.464;2022-09-20T12:26:13;12.90;99.90
37754;DHT22;23596;52.520;13.464;2022-09-20T12:29:07;13.30;99.90
37754;DHT22;23596;52.520;13.464;2022-09-20T12:31:47;13.40;99.90
37754;DHT22;23596;52.520;13.464;2022-09-20T12:36:40;14.10;99.90
37754;DHT22;23596;52.520;13.464;2022-09-20T12:41:58;14.40;99.90
37754;DHT22;23596;52.520;13.464;2022-09-20T12:44:29;14.60;99.90
37754;DHT22;23596;52.520;13.464;2022-09-20T12:58:20;15.70;99.90
37754;DHT22;23596;52.520;13.464;2022-09-20T13:08:54;15.90;99.90
37754;DHT22;23596;52.520;13.464;2022-09-20T13:11:41;15.80;99.90
37754;DHT22;23596;52.520;13.464;2022-09-20T13:14:27;15.70;99.90
37754;DHT22;23596;52.520;13.464;2022-09-20T13:17:12;15.60;99.90
37754;DHT22;23596;52.520;13.464;2022-09-20T13:19:46;15.70;99.90
37754;DHT22;23596;52.520;13.464;2022-09-20T13:22:23;15.60;99.90
37754;DHT22;23596;52.520;13.464;2022-09-20T13:24:52;15.70;99.90
37754;DHT22;23596;52.520;13.464;2022-09-20T13:27:27;15.70;99.90
37754;DHT22;23596;52.520;13.464;2022-09-20T13:29:54;15.80;99.90
37754;DHT22;23596;52.520;13.464;2022-09-20T13:32:28;16.00;99.90
37754;DHT22;23596;52.520;13.464;2022-09-20T13:40:25;16.10;99.90
37754;DHT22;23596;52.520;13.464;2022-09-20T13:43:02;15.90;99.90
37754;DHT22;23596;52.520;13.464;2022-09-20T13:45:29;15.60;99.90
37754;DHT22;23596;52.520;13.464;2022-09-20T13:47:59;15.90;99.90
37754;DHT22;23596;52.520;13.464;2022-09-20T13:50:30;16.40;99.90
37754;DHT22;23596;52.520;13.464;2022-09-20T13:52:59;16.70;99.90
37754;DHT22;23596;52.520;13.464;2022-09-20T13:55:35;16.80;99.90
37754;DHT22;23596;52.520;13.464;2022-09-20T14:01:02;16.70;99.90
37754;DHT22;23596;52.520;13.464;2022-09-20T14:03:30;16.60;99.90
37754;DHT22;23596;52.520;13.464;2022-09-20T14:06:03;16.60;99.90
37754;DHT22;23596;52.520;13.464;2022-09-20T14:08:39;16.60;99.90
37754;DHT22;23596;52.520;13.464;2022-09-20T14:11:20;16.60;99.90
37754;DHT22;23596;52.520;13.464;2022-09-20T14:13:52;16.60;99.90
37754;DHT22;23596;52.520;13.464;2022-09-20T14:16:20;16.60;99.90
37754;DHT22;23596;52.520;13.464;2022-09-20T14:18:47;16.50;99.90
37754;DHT22;23596;52.520;13.464;2022-09-20T14:21:19;16.80;99.90
37754;DHT22;23596;52.520;13.464;2022-09-20T14:24:00;16.20;99.90
37754;DHT22;23596;52.520;13.464;2022-09-20T14:26:33;16.90;99.90
37754;DHT22;23596;52.520;13.464;2022-09-20T14:35:31;18.10;99.90
37754;DHT22;23596;52.520;13.464;2022-09-20T14:37:57;18.00;99.90
37754;DHT22;23596;52.520;13.464;2022-09-20T14:42:57;18.50;99.90
37754;DHT22;23596;52.520;13.464;2022-09-20T14:45:33;18.80;99.90
37754;DHT22;23596;52.520;13.464;2022-09-20T14:48:30;19.70;99.90
37754;DHT22;23596;52.520;13.464;2022-09-20T14:53:41;21.60;99.90
37754;DHT22;23596;52.520;13.464;2022-09-20T14:56:11;21.70;99.90
37754;DHT22;23596;52.520;13.464;2022-09-20T15:01:35;21.30;99.80
37754;DHT22;23596;52.520;13.464;2022-09-20T15:04:18;21.40;99.80
37754;DHT22;23596;52.520;13.464;2022-09-20T15:06:45;21.40;99.60
37754;DHT22;23596;52.520;13.464;2022-09-20T15:09:11;20.70;99.90
37754;DHT22;23596;52.520;13.464;2022-09-20T15:11:38;19.50;99.90
37754;DHT22;23596;52.520;13.464;2022-09-20T15:14:05;19.50;99.90
37754;DHT22;23596;52.520;13.464;2022-09-20T15:16:31;19.50;99.90
37754;DHT22;23596;52.520;13.464;2022-09-20T15:18:57;20.20;99.90
37754;DHT22;23596;52.520;13.464;2022-09-20T15:21:24;19.70;99.90
37754;DHT22;23596;52.520;13.464;2022-09-20T15:23:49;19.70;99.90
37754;DHT22;23596;52.520;13.464;2022-09-20T15:26:18;20.00;99.90
37754;DHT22;23596;52.520;13.464;2022-09-20T15:28:44;19.90;99.90
37754;DHT22;23596;52.520;13.464;2022-09-20T15:31:10;19.40;99.90
37754;DHT22;23596;52.520;13.464;2022-09-20T15:33:37;18.70;99.90
37754;DHT22;23596;52.520;13.464;2022-09-20T15:36:04;18.00;99.90
37754;DHT22;23596;52.520;13.464;2022-09-20T15:38:30;17.40;99.90
37754;DHT22;23596;52.520;13.464;2022-09-20T15:40:58;16.80;99.90
37754;DHT22;23596;52.520;13.464;2022-09-20T15:43:24;16.10;99.90
37754;DHT22;23596;52.520;13.464;2022-09-20T15:45:52;15.50;99.90
37754;DHT22;23596;52.520;13.464;2022-09-20T15:48:19;14.80;99.90
37754;DHT22;23596;52.520;13.464;2022-09-20T15:53:29;13.80;99.90
37754;DHT22;23596;52.520;13.464;2022-09-20T15:55:57;13.40;99.90
37754;DHT22;23596;52.520;13.464;2022-09-20T15:58:25;13.00;99.90
37754;DHT22;23596;52.520;13.464;2022-09-20T16:00:51;12.80;99.90
37754;DHT22;23596;52.520;13.464;2022-09-20T16:03:16;12.50;99.90
37754;DHT22;23596;52.520;13.464;2022-09-20T16:05:42;12.40;99.90
37754;DHT22;23596;52.520;13.464;2022-09-20T16:08:07;12.30;99.90
37754;DHT22;23596;52.520;13.464;2022-09-20T16:10:33;12.30;99.90
37754;DHT22;23596;52.520;13.464;2022-09-20T16:12:59;12.70;99.90
37754;DHT22;23596;52.520;13.464;2022-09-20T16:15:24;12.30;99.90
37754;DHT22;23596;52.520;13.464;2022-09-20T16:17:50;12.30;99.90
37754;DHT22;23596;52.520;13.464;2022-09-20T16:20:34;12.20;99.90
37754;DHT22;23596;52.520;13.464;2022-09-20T16:23:00;12.30;99.90
37754;DHT22;23596;52.520;13.464;2022-09-20T16:25:26;12.30;99.90
37754;DHT22;23596;52.520;13.464;2022-09-20T16:27:51;12.30;99.90
37754;DHT22;23596;52.520;13.464;2022-09-20T16:30:17;12.40;99.90
37754;DHT22;23596;52.520;13.464;2022-09-20T16:32:44;12.50;99.90
37754;DHT22;23596;52.520;13.464;2022-09-20T16:35:10;12.50;99.90
37754;DHT22;23596;52.520;13.464;2022-09-20T16:37:36;12.60;99.90
37754;DHT22;23596;52.520;13.464;2022-09-20T16:40:03;12.60;99.90
37754;DHT22;23596;52.520;13.464;2022-09-20T16:42:29;12.60;99.90
37754;DHT22;23596;52.520;13.464;2022-09-20T16:44:56;12.60;99.90
37754;DHT22;23596;52.520;13.464;2022-09-20T16:47:21;12.60;99.90
37754;DHT22;23596;52.520;13.464;2022-09-20T16:49:47;12.60;99.90
37754;DHT22;23596;52.520;13.464;2022-09-20T16:52:14;12.50;99.90
37754;DHT22;23596;52.520;13.464;2022-09-20T16:54:40;12.50;99.90
37754;DHT22;23596;52.520;13.464;2022-09-20T16:57:06;12.50;99.90
37754;DHT22;23596;52.520;13.464;2022-09-20T16:59:32;12.40;99.90
37754;DHT22;23596;52.520;13.464;2022-09-20T17:01:57;12.30;99.90
37754;DHT22;23596;52.520;13.464;2022-09-20T17:04:23;12.30;99.90
37754;DHT22;23596;52.520;13.464;2022-09-20T17:06:49;12.30;99.90
37754;DHT22;23596;52.520;13.464;2022-09-20T17:09:15;12.20;99.90
37754;DHT22;23596;52.520;13.464;2022-09-20T17:11:43;12.20;99.90
37754;DHT22;23596;52.520;13.464;2022-09-20T17:14:10;12.30;99.90
37754;DHT22;23596;52.520;13.464;2022-09-20T17:16:38;12.30;99.90
37754;DHT22;23596;52.520;13.464;2022-09-20T17:19:06;12.30;99.90
37754;DHT22;23596;52.520;13.464;2022-09-20T17:21:33;12.30;99.90
37754;DHT22;23596;52.520;13.464;2022-09-20T17:24:01;12.30;99.90
37754;DHT22;23596;52.520;13.464;2022-09-20T17:26:30;12.30;99.90
37754;DHT22;23596;52.520;13.464;2022-09-20T17:28:58;12.30;99.90
37754;DHT22;23596;52.520;13.464;2022-09-20T17:31:25;12.30;99.90
37754;DHT22;23596;52.520;13.464;2022-09-20T17:33:57;12.30;99.90
37754;DHT22;23596;52.520;13.464;2022-09-20T17:36:29;12.20;99.90
37754;DHT22;23596;52.520;13.464;2022-09-20T17:38:56;12.10;99.90
37754;DHT22;23596;52.520;13.464;2022-09-20T17:41:23;12.10;99.90
37754;DHT22;23596;52.520;13.464;2022-09-20T17:43:53;12.00;99.90
37754;DHT22;23596;52.520;13.464;2022-09-20T17:46:24;12.00;99.90
37754;DHT22;23596;52.520;13.464;2022-09-20T17:48:58;12.00;99.90
37754;DHT22;23596;52.520;13.464;2022-09-20T17:51:28;12.00;99.90
37754;DHT22;23596;52.520;13.464;2022-09-20T17:53:54;12.00;99.90
37754;DHT22;23596;52.520;13.464;2022-09-20T17:56:23;11.90;99.90
37754;DHT22;23596;52.520;13.464;2022-09-20T17:58:53;11.90;99.90
37754;DHT22;23596;52.520;13.464;2022-09-20T18:01:20;11.80;99.90
37754;DHT22;23596;52.520;13.464;2022-09-20T18:03:46;11.80;99.90
37754;DHT22;23596;52.520;13.464;2022-09-20T18:06:21;11.80;99.90
37754;DHT22;23596;52.520;13.464;2022-09-20T18:08:49;11.80;99.90
37754;DHT22;23596;52.520;13.464;2022-09-20T18:11:17;11.80;99.90
37754;DHT22;23596;52.520;13.464;2022-09-20T18:13:44;11.80;99.90
37754;DHT22;23596;52.520;13.464;2022-09-20T18:16:11;11.80;99.90
37754;DHT22;23596;52.520;13.464;2022-09-20T18:18:41;11.80;99.90
37754;DHT22;23596;52.520;13.464;2022-09-20T18:21:12;11.70;99.90
37754;DHT22;23596;52.520;13.464;2022-09-20T18:23:38;11.70;99.90
37754;DHT22;23596;52.520;13.464;2022-09-20T18:26:08;11.70;99.90
37754;DHT22;23596;52.520;13.464;2022-09-20T18:28:46;11.60;99.90
37754;DHT22;23596;52.520;13.464;2022-09-20T18:31:12;11.60;99.90
37754;DHT22;23596;52.520;13.464;2022-09-20T18:33:37;11.60;99.90
37754;DHT22;23596;52.520;13.464;2022-09-20T18:36:05;11.50;99.90
37754;DHT22;23596;52.520;13.464;2022-09-20T18:38:30;11.50;99.90
37754;DHT22;23596;52.520;13.464;2022-09-20T18:40:58;11.50;99.90
37754;DHT22;23596;52.520;13.464;2022-09-20T18:43:29;11.50;99.90
37754;DHT22;23596;52.520;13.464;2022-09-20T18:45:56;11.40;99.90
37754;DHT22;23596;52.520;13.464;2022-09-20T18:48:22;11.40;99.90
37754;DHT22;23596;52.520;13.464;2022-09-20T18:51:02;11.30;99.90
37754;DHT22;23596;52.520;13.464;2022-09-20T18:53:32;11.40;99.90
37754;DHT22;23596;52.520;13.464;2022-09-20T18:56:18;11.30;99.90
37754;DHT22;23596;52.520;13.464;2022-09-20T18:58:44;11.30;99.90
37754;DHT22;23596;52.520;13.464;2022-09-20T19:01:17;11.30;99.90
37754;DHT22;23596;52.520;13.464;2022-09-20T19:04:01;11.30;99.90
37754;DHT22;23596;52.520;13.464;2022-09-20T19:07:19;11.30;99.90
37754;DHT22;23596;52.520;13.464;2022-09-20T19:09:21;11.30;99.90
37754;DHT22;23596;52.520;13.464;2022-09-20T19:11:54;11.20;99.90
37754;DHT22;23596;52.520;13.464;2022-09-20T19:14:28;11.20;99.90
37754;DHT22;23596;52.520;13.464;2022-09-20T19:16:59;11.20;99.90
37754;DHT22;23596;52.520;13.464;2022-09-20T19:19:37;11.20;99.90
37754;DHT22;23596;52.520;13.464;2022-09-20T19:22:20;11.20;99.90
37754;DHT22;23596;52.520;13.464;2022-09-20T19:27:26;11.10;99.90
37754;DHT22;23596;52.520;13.464;2022-09-20T19:29:52;11.10;99.90
37754;DHT22;23596;52.520;13.464;2022-09-20T19:32:18;11.10;99.90
37754;DHT22;23596;52.520;13.464;2022-09-20T19:34:51;11.00;99.90
37754;DHT22;23596;52.520;13.464;2022-09-20T19:37:40;11.00;99.90
37754;DHT22;23596;52.520;13.464;2022-09-20T19:48:39;11.00;99.90
37754;DHT22;23596;52.520;13.464;2022-09-20T19:51:11;11.00;99.90
37754;DHT22;23596;52.520;13.464;2022-09-20T19:53:37;11.00;99.90
37754;DHT22;23596;52.520;13.464;2022-09-20T19:56:20;10.90;99.90
37754;DHT22;23596;52.520;13.464;2022-09-20T19:58:47;10.90;99.90
37754;DHT22;23596;52.520;13.464;2022-09-20T20:01:20;10.90;99.90
37754;DHT22;23596;52.520;13.464;2022-09-20T20:03:48;10.90;99.90
37754;DHT22;23596;52.520;13.464;2022-09-20T20:06:39;10.90;99.90
37754;DHT22;23596;52.520;13.464;2022-09-20T20:09:27;10.80;99.90
37754;DHT22;23596;52.520;13.464;2022-09-20T20:14:47;10.80;99.90
37754;DHT22;23596;52.520;13.464;2022-09-20T20:20:31;10.70;99.90
37754;DHT22;23596;52.520;13.464;2022-09-20T20:28:33;10.70;99.90
37754;DHT22;23596;52.520;13.464;2022-09-20T20:31:00;10.70;99.90
37754;DHT22;23596;52.520;13.464;2022-09-20T20:33:27;10.70;99.90
37754;DHT22;23596;52.520;13.464;2022-09-20T20:35:53;10.70;99.90
37754;DHT22;23596;52.520;13.464;2022-09-20T20:38:21;10.60;99.90
37754;DHT22;23596;52.520;13.464;2022-09-20T20:41:00;10.60;99.90
37754;DHT22;23596;52.520;13.464;2022-09-20T20:43:32;10.60;99.90
37754;DHT22;23596;52.520;13.464;2022-09-20T20:45:59;10.50;99.90
37754;DHT22;23596;52.520;13.464;2022-09-20T20:48:25;10.60;99.90